Time;durP1;ratioP1;P1;durP2;ratioP2;P2;SDS_P1;SDS_P2;PMS_P1;PMS_P2;Temp;Humidity;BMP_temperature;BMP_pressure;BME280_temperature;BME280_humidity;BME280_pressure;Samples;Min_cycle;Max_cycle;Signal;HPM_P1;HPM_P2
2022/09/14 00:01:38;;;;;;;7.13;2.50;;;17.30;99.90;;;;;;5114154;28;20307;-42
2022/09/14 00:04:09;;;;;;;7.23;2.47;;;17.30;99.90;;;;;;5115332;28;20175;-41
2022/09/14 00:06:35;;;;;;;8.10;2.93;;;17.20;99.90;;;;;;5113862;28;20201;-42
2022/09/14 00:09:01;;;;;;;5.00;2.30;;;17.20;99.90;;;;;;5113706;27;20548;-40
2022/09/14 00:11:29;;;;;;;6.00;2.27;;;17.20;99.90;;;;;;5114299;28;20177;-40
2022/09/14 00:13:56;;;;;;;5.07;2.20;;;17.20;99.90;;;;;;5114102;28;20273;-41
2022/09/14 00:16:26;;;;;;;5.97;2.37;;;17.20;99.90;;;;;;5113693;28;20788;-43
2022/09/14 00:18:53;;;;;;;5.27;2.23;;;17.20;99.90;;;;;;5113919;28;20265;-41
2022/09/14 00:21:22;;;;;;;4.90;2.20;;;17.20;99.90;;;;;;5113531;28;20671;-39
2022/09/14 00:23:48;;;;;;;3.50;1.90;;;17.20;99.90;;;;;;5113670;28;20545;-38
2022/09/14 00:26:16;;;;;;;4.43;2.30;;;17.20;99.90;;;;;;5113603;28;20297;-41
2022/09/14 00:28:45;;;;;;;5.03;2.00;;;17.20;99.90;;;;;;5113931;28;20170;-40
2022/09/14 00:31:12;;;;;;;3.90;1.97;;;17.20;99.90;;;;;;5113844;28;20269;-41
2022/09/14 00:33:38;;;;;;;4.33;1.97;;;17.20;99.90;;;;;;5112248;28;20182;-41
2022/09/14 00:36:09;;;;;;;5.80;1.90;;;17.20;99.90;;;;;;5113508;28;20675;-41
2022/09/14 00:38:35;;;;;;;2.37;1.77;;;17.20;99.90;;;;;;5114140;28;20295;-39
2022/09/14 00:41:02;;;;;;;4.87;2.10;;;17.20;99.90;;;;;;5118001;28;20254;-40
2022/09/14 00:43:29;;;;;;;5.27;2.07;;;17.20;99.90;;;;;;5118105;28;20181;-39
2022/09/14 00:45:55;;;;;;;5.77;1.90;;;17.20;99.90;;;;;;5117593;28;20246;-40
2022/09/14 00:48:23;;;;;;;3.17;1.57;;;17.20;99.90;;;;;;5117873;28;20584;-40
2022/09/14 00:50:50;;;;;;;5.23;1.57;;;17.20;99.90;;;;;;5117410;28;20186;-39
2022/09/14 00:53:16;;;;;;;4.57;1.90;;;17.20;99.90;;;;;;5117748;28;20640;-41
2022/09/14 00:55:41;;;;;;;6.60;2.00;;;17.20;99.90;;;;;;5117321;28;20233;-42
2022/09/14 00:58:07;;;;;;;7.73;1.80;;;17.10;99.90;;;;;;5117257;28;20257;-38
2022/09/14 01:00:33;;;;;;;4.60;1.80;;;17.10;99.90;;;;;;5117580;28;20546;-40
2022/09/14 01:02:59;;;;;;;2.20;1.70;;;17.10;99.90;;;;;;5117563;28;20236;-39
2022/09/14 01:05:46;;;;;;;4.83;1.77;;;17.10;99.90;;;;;;5117094;28;20659;-41
2022/09/14 01:08:30;;;;;;;4.97;1.73;;;17.10;99.90;;;;;;5117367;28;20219;-42
2022/09/14 01:11:40;;;;;;;6.03;1.70;;;17.10;99.90;;;;;;5117030;27;20261;-39
2022/09/14 01:14:14;;;;;;;5.43;1.83;;;17.10;99.90;;;;;;5106802;28;20190;-43
2022/09/14 01:17:06;;;;;;;5.93;1.73;;;17.10;99.90;;;;;;5117032;28;20289;-41
2022/09/14 01:20:04;;;;;;;4.23;1.93;;;17.10;99.90;;;;;;5115754;28;20170;-41
2022/09/14 01:22:41;;;;;;;6.60;1.80;;;17.10;99.90;;;;;;5115701;28;20178;-40
2022/09/14 01:25:18;;;;;;;5.43;2.27;;;17.10;99.90;;;;;;5116563;28;20214;-41
2022/09/14 01:27:45;;;;;;;6.33;1.97;;;17.00;99.90;;;;;;5116780;27;20166;-42
2022/09/14 01:30:14;;;;;;;8.07;2.50;;;17.00;99.90;;;;;;5116867;28;20178;-41
2022/09/14 01:33:17;;;;;;;4.83;2.50;;;16.90;99.90;;;;;;5116691;28;20264;-42
2022/09/14 01:35:49;;;;;;;3.87;2.00;;;16.90;99.90;;;;;;5116176;28;20292;-42
2022/09/14 01:38:39;;;;;;;4.50;2.07;;;16.80;99.90;;;;;;5116565;28;20170;-42
2022/09/14 01:41:12;;;;;;;8.67;2.20;;;16.80;99.90;;;;;;5116148;28;20218;-43
2022/09/14 01:43:45;;;;;;;6.57;2.47;;;16.70;99.90;;;;;;5116756;28;20214;-38
2022/09/14 01:46:17;;;;;;;5.47;2.13;;;16.60;99.90;;;;;;5116744;28;20193;-43
2022/09/14 01:49:06;;;;;;;6.30;2.47;;;16.60;99.90;;;;;;5116615;28;20190;-40
2022/09/14 01:51:47;;;;;;;4.53;2.10;;;16.60;99.90;;;;;;5115210;28;20179;-42
2022/09/14 01:54:24;;;;;;;7.93;2.60;;;16.50;99.90;;;;;;5116464;28;20163;-40
2022/09/14 01:57:01;;;;;;;7.03;2.33;;;16.50;99.90;;;;;;5116459;27;20244;-41
2022/09/14 01:59:31;;;;;;;4.87;2.33;;;16.50;99.90;;;;;;5116386;28;20169;-42
2022/09/14 02:02:09;;;;;;;5.30;2.17;;;16.50;99.90;;;;;;5116343;27;20604;-41
2022/09/14 02:04:56;;;;;;;5.90;2.00;;;16.50;99.90;;;;;;5114711;28;20200;-40
2022/09/14 02:07:23;;;;;;;7.20;2.30;;;16.50;99.90;;;;;;5116342;28;20693;-42
2022/09/14 02:09:51;;;;;;;5.47;2.33;;;16.40;99.90;;;;;;5115925;28;20205;-42
2022/09/14 02:12:17;;;;;;;5.43;2.17;;;16.40;99.90;;;;;;5115828;28;20174;-43
2022/09/14 02:14:45;;;;;;;4.83;1.77;;;16.40;99.90;;;;;;5115892;27;20186;-41
2022/09/14 02:17:12;;;;;;;4.47;2.10;;;16.40;99.90;;;;;;5116076;28;20269;-40
2022/09/14 02:19:49;;;;;;;9.00;2.30;;;16.40;99.90;;;;;;5115782;28;20189;-41
2022/09/14 02:22:15;;;;;;;5.03;2.00;;;16.40;99.90;;;;;;5114424;28;20287;-42
2022/09/14 02:24:40;;;;;;;6.73;2.20;;;16.40;99.90;;;;;;5115465;28;20244;-39
2022/09/14 02:27:07;;;;;;;5.00;2.13;;;16.40;99.90;;;;;;5115592;28;20190;-39
2022/09/14 02:29:33;;;;;;;3.70;2.10;;;16.30;99.90;;;;;;5115631;28;20604;-40
2022/09/14 02:32:35;;;;;;;3.00;2.10;;;16.30;99.90;;;;;;5115734;27;20182;-38
2022/09/14 02:35:15;;;;;;;4.87;2.17;;;16.30;99.90;;;;;;5115672;28;20221;-38
2022/09/14 02:37:58;;;;;;;4.33;2.03;;;16.30;99.90;;;;;;5115651;28;20162;-40
2022/09/14 02:40:32;;;;;;;5.30;2.50;;;16.30;99.90;;;;;;5115533;28;20204;-43
2022/09/14 02:43:13;;;;;;;5.83;2.37;;;16.30;99.90;;;;;;5115770;28;20165;-39
2022/09/14 02:46:09;;;;;;;4.10;2.37;;;16.20;99.90;;;;;;5115379;28;20272;-42
2022/09/14 02:48:49;;;;;;;6.67;2.67;;;16.20;99.90;;;;;;5115546;28;20158;-41
2022/09/14 02:51:36;;;;;;;6.13;2.63;;;16.20;99.90;;;;;;5115447;28;20178;-41
2022/09/14 02:54:31;;;;;;;4.87;2.83;;;16.20;99.90;;;;;;5115567;28;20505;-38
2022/09/14 02:57:01;;;;;;;5.13;2.40;;;16.10;99.90;;;;;;5115099;28;20650;-41
2022/09/14 02:59:27;;;;;;;5.43;2.60;;;16.10;99.90;;;;;;5115249;28;20193;-41
2022/09/14 03:01:52;;;;;;;6.07;2.43;;;16.10;99.90;;;;;;5114863;28;20655;-39
2022/09/14 03:04:18;;;;;;;5.27;2.40;;;16.10;99.90;;;;;;5114827;28;20304;-39
2022/09/14 03:06:44;;;;;;;5.30;2.17;;;16.10;99.90;;;;;;5113518;28;20198;-39
2022/09/14 03:09:09;;;;;;;7.93;3.10;;;16.10;99.90;;;;;;5114876;28;20518;-40
2022/09/14 03:11:35;;;;;;;7.67;2.63;;;16.10;99.90;;;;;;5114631;28;20186;-41
2022/09/14 03:14:01;;;;;;;5.43;2.77;;;16.10;99.90;;;;;;5114991;28;20201;-39
2022/09/14 03:16:26;;;;;;;3.53;2.43;;;16.00;99.90;;;;;;5114822;28;20216;-39
2022/09/14 03:18:52;;;;;;;6.40;2.97;;;16.00;99.90;;;;;;5115041;28;20189;-41
2022/09/14 03:21:18;;;;;;;7.17;3.27;;;16.00;99.90;;;;;;5114473;28;20267;-40
2022/09/14 03:23:50;;;;;;;5.73;2.60;;;16.00;99.90;;;;;;5114923;28;20181;-39
2022/09/14 03:26:21;;;;;;;6.10;3.37;;;15.90;99.90;;;;;;5112997;28;20213;-39
2022/09/14 03:28:55;;;;;;;5.03;3.20;;;15.90;99.90;;;;;;5114536;28;20182;-39
2022/09/14 03:31:21;;;;;;;5.37;2.90;;;15.90;99.90;;;;;;5114282;28;20178;-41
2022/09/14 03:33:52;;;;;;;3.90;3.00;;;15.90;99.90;;;;;;5114378;28;20189;-40
2022/09/14 03:36:19;;;;;;;7.10;3.07;;;15.90;99.90;;;;;;5114348;28;20552;-41
2022/09/14 03:38:46;;;;;;;6.23;2.93;;;15.90;99.90;;;;;;5114459;28;20265;-40
2022/09/14 03:41:13;;;;;;;5.57;2.90;;;15.90;99.90;;;;;;5114915;28;20221;-41
2022/09/14 03:43:39;;;;;;;4.30;2.60;;;15.90;99.90;;;;;;5114272;28;20186;-38
2022/09/14 03:46:10;;;;;;;8.57;3.53;;;15.90;99.90;;;;;;5112863;28;20667;-40
2022/09/14 03:48:36;;;;;;;5.93;2.93;;;15.90;99.90;;;;;;5114402;28;20163;-37
2022/09/14 03:51:03;;;;;;;6.63;3.27;;;15.90;99.90;;;;;;5114477;28;20184;-41
2022/09/14 03:53:29;;;;;;;4.70;3.10;;;15.90;99.90;;;;;;5114231;28;20174;-38
2022/09/14 03:55:55;;;;;;;7.80;3.53;;;15.90;99.90;;;;;;5114140;28;20609;-42
2022/09/14 03:58:21;;;;;;;6.17;3.47;;;15.90;99.90;;;;;;5114163;28;20182;-40
2022/09/14 04:00:47;;;;;;;5.83;3.43;;;15.90;99.90;;;;;;5113260;28;20259;-38
2022/09/14 04:03:13;;;;;;;5.57;3.40;;;15.80;99.90;;;;;;5114138;28;20178;-41
2022/09/14 04:05:38;;;;;;;9.97;3.60;;;15.80;99.90;;;;;;5113912;28;20194;-40
2022/09/14 04:08:04;;;;;;;8.63;3.60;;;15.80;99.90;;;;;;5113814;28;20182;-40
2022/09/14 04:10:29;;;;;;;8.20;3.60;;;15.80;99.90;;;;;;5112857;28;20193;-40
2022/09/14 04:12:56;;;;;;;5.67;3.50;;;15.80;99.90;;;;;;5113822;27;20320;-41
2022/09/14 04:15:22;;;;;;;8.57;4.13;;;15.80;99.90;;;;;;5113216;28;20300;-38
2022/09/14 04:17:48;;;;;;;6.47;3.90;;;15.80;99.90;;;;;;5113624;28;20288;-39
2022/09/14 04:20:14;;;;;;;8.30;4.20;;;15.70;99.90;;;;;;5113803;28;20190;-45
2022/09/14 04:22:40;;;;;;;10.60;4.20;;;15.80;99.90;;;;;;5113701;28;20174;-45
2022/09/14 04:25:06;;;;;;;7.40;4.50;;;15.70;99.90;;;;;;5112148;28;20266;-44
2022/09/14 04:27:32;;;;;;;8.57;4.50;;;15.70;99.90;;;;;;5113834;28;20605;-45
2022/09/14 04:29:57;;;;;;;7.97;4.93;;;15.70;99.90;;;;;;5113852;28;20254;-45
2022/09/14 04:32:23;;;;;;;7.57;4.80;;;15.70;99.90;;;;;;5113360;28;20236;-44
2022/09/14 04:34:48;;;;;;;8.23;4.67;;;15.60;99.90;;;;;;5113649;28;20202;-46
2022/09/14 04:37:14;;;;;;;7.60;4.70;;;15.60;99.90;;;;;;5113619;28;20665;-46
2022/09/14 04:39:41;;;;;;;9.80;5.13;;;15.60;99.90;;;;;;5113408;28;20182;-46
2022/09/14 04:42:06;;;;;;;7.67;5.13;;;15.60;99.90;;;;;;5113679;28;20245;-46
2022/09/14 04:44:32;;;;;;;7.03;5.33;;;15.60;99.90;;;;;;5112000;28;20208;-46
2022/09/14 04:46:57;;;;;;;8.43;5.97;;;15.50;99.90;;;;;;5113631;28;20182;-46
2022/09/14 04:49:23;;;;;;;13.67;6.80;;;15.50;99.90;;;;;;5113668;28;20532;-46
2022/09/14 04:51:49;;;;;;;8.97;5.97;;;15.50;99.90;;;;;;5113868;28;20217;-45
2022/09/14 04:54:16;;;;;;;11.20;6.87;;;15.50;99.90;;;;;;5113809;28;20265;-44
2022/09/14 04:56:43;;;;;;;11.03;6.50;;;15.40;99.90;;;;;;5113288;28;20250;-45
2022/09/14 04:59:09;;;;;;;8.77;7.87;;;15.50;99.90;;;;;;5113128;28;20189;-46
2022/09/14 05:01:40;;;;;;;9.10;7.47;;;15.40;99.90;;;;;;5113530;28;20250;-45
2022/09/14 05:04:07;;;;;;;13.50;7.43;;;15.40;99.90;;;;;;5113751;28;20204;-45
2022/09/14 05:06:35;;;;;;;12.00;7.33;;;15.40;99.90;;;;;;5113400;28;20202;-45
2022/09/14 05:09:03;;;;;;;10.90;7.60;;;15.30;99.90;;;;;;5113270;28;20182;-45
2022/09/14 05:11:31;;;;;;;9.37;7.17;;;15.30;99.90;;;;;;5113265;28;20544;-47
2022/09/14 05:13:58;;;;;;;10.77;7.10;;;15.20;99.90;;;;;;5111967;28;20224;-45
2022/09/14 05:16:29;;;;;;;9.47;8.00;;;15.30;99.90;;;;;;5113337;28;20267;-45
2022/09/14 05:19:01;;;;;;;8.13;6.30;;;15.20;99.90;;;;;;5113663;28;20198;-46
2022/09/14 05:21:28;;;;;;;9.83;6.40;;;15.20;99.90;;;;;;5111893;28;20206;-39
2022/09/14 05:23:56;;;;;;;7.67;5.70;;;15.10;99.90;;;;;;5113718;28;20179;-46
2022/09/14 05:26:22;;;;;;;7.93;5.30;;;15.10;99.90;;;;;;5113468;28;20224;-42
2022/09/14 05:28:51;;;;;;;10.00;5.73;;;15.10;99.90;;;;;;5117197;28;20205;-42
2022/09/14 05:31:17;;;;;;;10.00;5.20;;;15.00;99.90;;;;;;5119577;28;20700;-44
2022/09/14 05:33:43;;;;;;;6.20;4.53;;;15.00;99.90;;;;;;5119920;28;20174;-46
2022/09/14 05:36:09;;;;;;;9.23;4.73;;;15.00;99.90;;;;;;5121650;28;20201;-41
2022/09/14 05:38:37;;;;;;;8.53;4.90;;;15.00;99.90;;;;;;5118580;28;20182;-39
2022/09/14 05:41:04;;;;;;;6.30;4.63;;;15.00;99.90;;;;;;5116682;28;20202;-39
2022/09/14 05:43:30;;;;;;;8.60;5.00;;;14.90;99.90;;;;;;5116671;28;20522;-41
2022/09/14 05:45:59;;;;;;;6.50;4.20;;;14.90;99.90;;;;;;5116554;28;20636;-41
2022/09/14 05:48:25;;;;;;;7.80;4.60;;;14.90;99.90;;;;;;5117274;28;20265;-42
2022/09/14 05:51:00;;;;;;;6.30;4.00;;;14.90;99.90;;;;;;5117280;28;20257;-40
2022/09/14 05:53:26;;;;;;;5.93;3.83;;;14.80;99.90;;;;;;5117270;28;20170;-40
2022/09/14 05:56:00;;;;;;;7.17;4.23;;;14.80;99.90;;;;;;5116815;28;20201;-39
2022/09/14 05:58:26;;;;;;;8.77;4.30;;;14.70;99.90;;;;;;5116525;28;20206;-40
2022/09/14 06:00:52;;;;;;;7.00;4.67;;;14.70;99.90;;;;;;5115960;28;20205;-39
2022/09/14 06:03:17;;;;;;;8.03;4.93;;;14.70;99.90;;;;;;5116231;28;20177;-39
2022/09/14 06:05:43;;;;;;;8.17;4.73;;;14.60;99.90;;;;;;5115965;28;20190;-38
2022/09/14 06:08:08;;;;;;;9.60;4.87;;;14.60;99.90;;;;;;5116213;28;20171;-39
2022/09/14 06:10:34;;;;;;;5.43;4.10;;;14.60;99.90;;;;;;5116257;28;20183;-38
2022/09/14 06:13:00;;;;;;;12.70;5.50;;;14.60;99.90;;;;;;5116234;28;20717;-38
2022/09/14 06:15:25;;;;;;;8.00;4.80;;;14.60;99.90;;;;;;5115895;28;20201;-39
2022/09/14 06:17:51;;;;;;;6.63;4.50;;;14.60;99.90;;;;;;5115860;28;20648;-38
2022/09/14 06:20:17;;;;;;;11.03;5.07;;;14.60;99.90;;;;;;5115670;27;20548;-40
2022/09/14 06:22:43;;;;;;;7.77;4.60;;;14.60;99.90;;;;;;5115964;28;20655;-40
2022/09/14 06:25:10;;;;;;;5.53;3.93;;;14.60;99.90;;;;;;5115468;28;20296;-41
2022/09/14 06:27:36;;;;;;;7.60;4.30;;;14.60;99.90;;;;;;5115595;28;20171;-41
2022/09/14 06:30:02;;;;;;;5.50;4.20;;;14.50;99.90;;;;;;5115695;28;20186;-41
2022/09/14 06:32:30;;;;;;;8.20;4.90;;;14.60;99.90;;;;;;5114362;28;20193;-40
2022/09/14 06:34:55;;;;;;;4.97;3.97;;;14.50;99.90;;;;;;5115559;28;20202;-40
2022/09/14 06:37:21;;;;;;;7.47;4.40;;;14.50;99.90;;;;;;5115453;28;20262;-40
2022/09/14 06:39:46;;;;;;;6.63;4.10;;;14.50;99.90;;;;;;5115348;28;20182;-41
2022/09/14 06:42:12;;;;;;;8.60;4.10;;;14.60;99.90;;;;;;5115160;28;20227;-39
2022/09/14 06:44:37;;;;;;;7.30;4.13;;;14.50;99.90;;;;;;5113990;28;20631;-40
2022/09/14 06:47:03;;;;;;;6.60;4.03;;;14.50;99.90;;;;;;5115151;28;20223;-40
2022/09/14 06:49:29;;;;;;;6.73;3.90;;;14.60;99.90;;;;;;5115505;28;20636;-39
2022/09/14 06:51:56;;;;;;;5.13;3.47;;;14.60;99.90;;;;;;5114995;28;20273;-37
2022/09/14 06:54:22;;;;;;;4.93;2.97;;;14.60;99.90;;;;;;5113777;28;20234;-42
2022/09/14 06:56:47;;;;;;;5.23;3.13;;;14.60;99.90;;;;;;5114937;28;20343;-41
2022/09/14 06:59:15;;;;;;;4.40;2.83;;;14.60;99.90;;;;;;5114956;28;20213;-39
2022/09/14 07:01:41;;;;;;;4.47;2.83;;;14.60;99.90;;;;;;5114902;28;20202;-40
2022/09/14 07:04:07;;;;;;;6.20;2.90;;;14.60;99.90;;;;;;5114817;28;20246;-39
2022/09/14 07:06:46;;;;;;;5.13;2.40;;;14.70;99.90;;;;;;5114809;28;20198;-41
2022/09/14 07:09:12;;;;;;;3.90;2.20;;;14.60;99.90;;;;;;5115069;28;20166;-39
2022/09/14 07:11:39;;;;;;;5.63;2.20;;;14.60;99.90;;;;;;5114989;28;20293;-41
2022/09/14 07:14:05;;;;;;;5.07;2.03;;;14.60;99.90;;;;;;5114788;28;20539;-39
2022/09/14 07:16:33;;;;;;;3.77;2.00;;;14.60;99.90;;;;;;5114656;27;20655;-40
2022/09/14 07:19:01;;;;;;;4.93;2.27;;;14.60;99.90;;;;;;5114877;28;20225;-39
2022/09/14 07:21:28;;;;;;;3.20;1.90;;;14.60;99.90;;;;;;5114623;28;20205;-39
2022/09/14 07:23:54;;;;;;;3.43;1.90;;;14.60;99.90;;;;;;5114755;28;20174;-41
2022/09/14 07:26:41;;;;;;;7.03;1.70;;;14.50;99.90;;;;;;5114360;28;20572;-41
2022/09/14 07:29:11;;;;;;;4.13;2.37;;;14.50;99.90;;;;;;5114702;28;20190;-41
2022/09/14 07:31:42;;;;;;;3.27;1.90;;;14.50;99.90;;;;;;5114308;28;20243;-42
2022/09/14 07:34:08;;;;;;;3.87;1.67;;;14.50;99.90;;;;;;5113161;28;20178;-40
2022/09/14 07:36:35;;;;;;;2.97;1.67;;;14.50;99.90;;;;;;5114291;28;20205;-41
2022/09/14 07:39:03;;;;;;;3.37;1.97;;;14.50;99.90;;;;;;5114250;28;20257;-41
2022/09/14 07:41:31;;;;;;;2.97;1.60;;;14.40;99.90;;;;;;5114365;28;20626;-40
2022/09/14 07:43:59;;;;;;;4.00;1.87;;;14.40;99.90;;;;;;5114308;28;20188;-40
2022/09/14 07:46:25;;;;;;;4.37;2.23;;;14.40;99.90;;;;;;5114551;28;20285;-41
2022/09/14 07:48:56;;;;;;;4.00;1.90;;;14.40;99.90;;;;;;5113309;28;20173;-40
2022/09/14 07:51:22;;;;;;;4.27;1.77;;;14.40;99.90;;;;;;5114038;28;20193;-41
2022/09/14 07:53:48;;;;;;;4.30;1.80;;;14.40;99.90;;;;;;5112726;28;20271;-40
2022/09/14 07:56:15;;;;;;;3.33;1.90;;;14.40;99.90;;;;;;5114133;28;20202;-40
2022/09/14 07:58:41;;;;;;;3.20;1.60;;;14.40;99.90;;;;;;5113955;28;20170;-39
2022/09/14 08:01:10;;;;;;;3.77;1.70;;;14.40;99.90;;;;;;5113663;28;20329;-41
2022/09/14 08:03:37;;;;;;;5.10;1.93;;;14.40;99.90;;;;;;5114097;28;20564;-41
2022/09/14 08:06:04;;;;;;;3.83;1.67;;;14.40;99.90;;;;;;5113830;28;20186;-41
2022/09/14 08:08:32;;;;;;;1.90;1.63;;;14.40;99.90;;;;;;5114037;28;20186;-38
2022/09/14 08:11:10;;;;;;;5.70;2.27;;;14.40;99.90;;;;;;5113720;28;20184;-40
2022/09/14 08:13:37;;;;;;;3.63;1.97;;;14.30;99.90;;;;;;5113776;28;20639;-40
2022/09/14 08:16:04;;;;;;;5.03;2.17;;;14.40;99.90;;;;;;5113390;28;20289;-41
2022/09/14 08:18:31;;;;;;;2.43;1.70;;;14.40;99.90;;;;;;5113620;28;20231;-38
2022/09/14 08:21:06;;;;;;;4.70;2.00;;;14.40;99.90;;;;;;5113804;28;20220;-41
2022/09/14 08:23:32;;;;;;;5.07;1.80;;;14.40;99.90;;;;;;5113914;28;20162;-39
2022/09/14 08:26:03;;;;;;;4.10;1.97;;;14.40;99.90;;;;;;5113396;28;20701;-41
2022/09/14 08:28:28;;;;;;;3.47;1.90;;;14.40;99.90;;;;;;5113493;28;20171;-40
2022/09/14 08:30:54;;;;;;;4.43;1.70;;;14.40;99.90;;;;;;5113566;28;20185;-40
2022/09/14 08:33:19;;;;;;;6.67;2.37;;;14.40;99.90;;;;;;5113798;28;20190;-40
2022/09/14 08:35:45;;;;;;;2.83;1.90;;;14.40;99.90;;;;;;5113543;28;20753;-40
2022/09/14 08:38:10;;;;;;;5.20;2.10;;;14.50;99.90;;;;;;5113441;28;20234;-39
2022/09/14 08:40:44;;;;;;;4.00;2.40;;;14.50;99.90;;;;;;5113420;28;20202;-38
2022/09/14 08:43:12;;;;;;;5.43;2.20;;;14.50;99.90;;;;;;5113732;28;20245;-40
2022/09/14 08:45:41;;;;;;;5.70;2.60;;;14.50;99.90;;;;;;5112070;28;20198;-39
2022/09/14 08:48:34;;;;;;;3.63;2.40;;;14.50;99.90;;;;;;5113399;28;20197;-41
2022/09/14 08:51:00;;;;;;;5.03;2.13;;;14.60;99.90;;;;;;5113298;28;20652;-39
2022/09/14 08:53:25;;;;;;;3.37;2.43;;;14.60;99.90;;;;;;5113295;28;20206;-40
2022/09/14 08:56:01;;;;;;;4.30;2.47;;;14.70;99.90;;;;;;5113481;28;20213;-39
2022/09/14 08:58:38;;;;;;;3.77;2.23;;;14.70;99.90;;;;;;5113327;28;20278;-38
2022/09/14 09:01:37;;;;;;;3.57;2.40;;;14.70;99.90;;;;;;5116144;28;20217;-39
2022/09/14 09:04:14;;;;;;;4.70;2.80;;;14.70;99.90;;;;;;5117577;28;20162;-39
2022/09/14 09:06:57;;;;;;;5.10;2.87;;;14.70;99.90;;;;;;5117176;28;20189;-39
2022/09/14 09:09:27;;;;;;;3.00;2.13;;;14.80;99.90;;;;;;5117462;28;20163;-38
2022/09/14 09:11:54;;;;;;;4.20;2.23;;;14.80;99.90;;;;;;5117422;28;20174;-40
2022/09/14 09:14:34;;;;;;;3.80;2.50;;;14.80;99.90;;;;;;5117094;28;20262;-41
2022/09/14 09:17:10;;;;;;;3.03;2.30;;;14.80;99.90;;;;;;5117149;28;20245;-41
2022/09/14 09:19:54;;;;;;;6.30;2.77;;;14.80;99.90;;;;;;5117336;28;20150;-39
2022/09/14 09:22:22;;;;;;;3.57;2.10;;;14.90;99.90;;;;;;5116979;28;20218;-40
2022/09/14 09:24:53;;;;;;;3.00;2.33;;;14.80;99.90;;;;;;5116888;28;20703;-39
2022/09/14 09:27:19;;;;;;;3.10;2.37;;;14.90;99.90;;;;;;5117283;28;20162;-38
2022/09/14 09:29:45;;;;;;;5.00;2.47;;;14.90;99.90;;;;;;5116808;28;20590;-38
2022/09/14 09:32:23;;;;;;;7.07;2.50;;;14.90;99.90;;;;;;5116906;28;20202;-39
2022/09/14 09:34:50;;;;;;;6.50;2.50;;;14.90;99.90;;;;;;5117026;28;20197;-39
2022/09/14 09:37:23;;;;;;;5.00;2.67;;;14.90;99.90;;;;;;5116814;28;20166;-40
2022/09/14 09:39:49;;;;;;;3.60;2.27;;;14.90;99.90;;;;;;5116819;28;20257;-39
2022/09/14 09:42:23;;;;;;;4.23;2.50;;;15.00;99.90;;;;;;5116671;28;20221;-38
2022/09/14 09:44:55;;;;;;;3.17;2.33;;;15.00;99.90;;;;;;5116796;28;20264;-39
2022/09/14 09:47:32;;;;;;;4.47;2.60;;;15.00;99.90;;;;;;5116521;28;20174;-37
2022/09/14 09:50:00;;;;;;;5.00;2.60;;;15.00;99.90;;;;;;5116391;28;20643;-39
2022/09/14 09:52:26;;;;;;;4.27;2.50;;;15.00;99.90;;;;;;5116443;28;20258;-38
2022/09/14 09:54:54;;;;;;;7.10;2.70;;;15.00;99.90;;;;;;5116434;28;20198;-38
2022/09/14 09:57:33;;;;;;;5.90;2.63;;;15.00;99.90;;;;;;5116529;28;20198;-38
2022/09/14 10:00:16;;;;;;;4.20;2.77;;;15.00;99.90;;;;;;5116535;28;20171;-39
2022/09/14 10:02:42;;;;;;;7.20;3.07;;;15.00;99.90;;;;;;5116240;28;20174;-40
2022/09/14 10:05:07;;;;;;;5.03;2.90;;;15.10;99.90;;;;;;5114886;28;20194;-39
2022/09/14 10:07:38;;;;;;;3.87;2.57;;;15.10;99.90;;;;;;5114785;28;20175;-38
2022/09/14 10:10:12;;;;;;;4.27;2.70;;;15.10;99.90;;;;;;5116071;28;20231;-38
2022/09/14 10:12:45;;;;;;;5.13;2.50;;;15.10;99.90;;;;;;5115235;28;20256;-40
2022/09/14 10:15:15;;;;;;;4.03;2.67;;;15.10;99.90;;;;;;5114567;28;20206;-38
2022/09/14 10:18:06;;;;;;;4.43;2.80;;;15.10;99.90;;;;;;5116164;27;20170;-40
2022/09/14 10:20:32;;;;;;;4.83;3.17;;;15.10;99.90;;;;;;5115974;28;20185;-40
2022/09/14 10:23:17;;;;;;;5.10;2.47;;;15.10;99.90;;;;;;5115904;28;20231;-40
2022/09/14 10:25:47;;;;;;;3.80;2.60;;;15.10;99.90;;;;;;5115495;28;20210;-43
2022/09/14 10:28:26;;;;;;;3.90;2.70;;;15.10;99.90;;;;;;5116029;28;20173;-40
2022/09/14 10:31:25;;;;;;;4.33;2.90;;;15.10;99.90;;;;;;5115585;28;20535;-40
2022/09/14 10:33:55;;;;;;;4.37;2.63;;;15.20;99.90;;;;;;5106259;28;20565;-40
2022/09/14 10:36:24;;;;;;;5.27;3.17;;;15.20;99.90;;;;;;5115387;28;20198;-41
2022/09/14 10:38:58;;;;;;;3.77;3.13;;;15.20;99.90;;;;;;5115622;27;20170;-41
2022/09/14 10:41:30;;;;;;;4.77;3.20;;;15.20;99.90;;;;;;5114454;28;20209;-41
2022/09/14 10:43:58;;;;;;;4.83;3.17;;;15.30;99.90;;;;;;5116370;27;20585;-39
2022/09/14 10:46:29;;;;;;;4.53;2.80;;;15.30;99.90;;;;;;5114352;28;20573;-39
2022/09/14 10:48:55;;;;;;;3.63;2.97;;;15.30;99.90;;;;;;5115375;28;20528;-39
2022/09/14 10:51:40;;;;;;;4.60;3.17;;;15.30;99.90;;;;;;5115297;28;20174;-40
2022/09/14 10:54:35;;;;;;;2.80;2.60;;;15.30;99.90;;;;;;5115832;28;20181;-39
2022/09/14 10:57:34;;;;;;;4.70;3.00;;;15.40;99.90;;;;;;5115375;28;20565;-42
2022/09/14 11:00:12;;;;;;;4.87;3.30;;;15.40;99.90;;;;;;5113808;28;20178;-42
2022/09/14 11:02:52;;;;;;;3.33;2.70;;;15.40;99.90;;;;;;5115410;28;20284;-45
2022/09/14 11:05:29;;;;;;;4.40;2.80;;;15.40;99.90;;;;;;5115079;28;20201;-44
2022/09/14 11:08:10;;;;;;;3.53;2.70;;;15.40;99.90;;;;;;5115413;28;20162;-46
2022/09/14 11:11:18;;;;;;;3.67;2.90;;;15.30;99.90;;;;;;5114877;28;20174;-46
2022/09/14 11:14:13;;;;;;;4.50;2.83;;;15.30;99.90;;;;;;5115166;28;20620;-46
2022/09/14 11:16:58;;;;;;;4.27;2.60;;;15.30;99.90;;;;;;5113438;28;20206;-45
2022/09/14 11:19:24;;;;;;;5.03;2.47;;;15.30;99.90;;;;;;5115027;28;20212;-45
2022/09/14 11:22:11;;;;;;;4.07;2.67;;;15.30;99.90;;;;;;5114829;28;20225;-44
2022/09/14 11:24:43;;;;;;;4.47;2.60;;;15.30;99.90;;;;;;5113513;28;20185;-44
2022/09/14 11:27:40;;;;;;;3.23;2.20;;;15.20;99.90;;;;;;5115201;28;20224;-47
2022/09/14 11:30:13;;;;;;;2.60;2.40;;;15.30;99.90;;;;;;5114819;28;20179;-46
2022/09/14 11:32:41;;;;;;;3.50;1.90;;;15.30;99.90;;;;;;5114958;28;20190;-40
2022/09/14 11:35:15;;;;;;;3.17;2.10;;;15.30;99.90;;;;;;5114541;28;20572;-41
2022/09/14 11:38:00;;;;;;;1.90;1.50;;;15.30;99.90;;;;;;5114635;28;20159;-42
2022/09/14 11:40:40;;;;;;;2.77;1.53;;;15.30;99.90;;;;;;5114968;28;20170;-42
2022/09/14 11:43:14;;;;;;;2.67;1.17;;;15.30;99.90;;;;;;5114653;28;20201;-44
2022/09/14 11:45:50;;;;;;;3.50;1.20;;;15.20;99.90;;;;;;5114538;28;20202;-42
2022/09/14 11:48:28;;;;;;;1.43;1.03;;;15.10;99.90;;;;;;5114549;28;20539;-43
2022/09/14 11:51:02;;;;;;;3.97;1.30;;;15.00;99.90;;;;;;5114230;28;20174;-43
2022/09/14 11:53:29;;;;;;;2.83;1.33;;;15.00;99.90;;;;;;5113534;28;20177;-40
2022/09/14 11:55:55;;;;;;;4.73;1.37;;;14.90;99.90;;;;;;5114327;28;20256;-40
2022/09/14 11:58:24;;;;;;;2.60;1.20;;;14.90;99.90;;;;;;5114127;28;20178;-40
2022/09/14 12:01:03;;;;;;;3.00;1.50;;;14.90;99.90;;;;;;5113994;28;20683;-41
2022/09/14 12:03:52;;;;;;;2.23;1.20;;;14.90;99.90;;;;;;5113895;28;20174;-39
2022/09/14 12:06:42;;;;;;;2.13;1.00;;;14.90;99.90;;;;;;5113911;28;20198;-39
2022/09/14 12:09:11;;;;;;;2.47;1.03;;;14.90;99.90;;;;;;5111625;28;20190;-38
2022/09/14 12:11:37;;;;;;;2.03;1.20;;;14.90;99.90;;;;;;5114640;28;20186;-40
2022/09/14 12:14:28;;;;;;;1.90;1.10;;;14.80;99.90;;;;;;5113859;28;20201;-39
2022/09/14 12:17:19;;;;;;;1.47;1.20;;;14.70;99.90;;;;;;5113811;28;20228;-38
2022/09/14 12:19:48;;;;;;;2.50;1.10;;;14.70;99.90;;;;;;5112400;28;20181;-41
2022/09/14 12:22:33;;;;;;;1.97;1.13;;;14.70;99.90;;;;;;5113625;28;20202;-39
2022/09/14 12:25:21;;;;;;;2.40;1.10;;;14.70;99.90;;;;;;5113547;28;20315;-38
2022/09/14 12:27:48;;;;;;;2.13;1.20;;;14.70;99.90;;;;;;5114064;28;20166;-39
2022/09/14 12:30:34;;;;;;;1.43;0.90;;;14.70;99.90;;;;;;5113459;28;20639;-42
2022/09/14 12:33:01;;;;;;;2.43;1.83;;;14.80;99.90;;;;;;5113786;28;20214;-41
2022/09/14 12:35:39;;;;;;;4.83;1.80;;;14.80;99.90;;;;;;5113207;28;20190;-39
2022/09/14 12:38:29;;;;;;;4.53;1.60;;;14.70;99.90;;;;;;5113430;28;20213;-42
2022/09/14 12:41:14;;;;;;;4.93;1.80;;;14.70;99.90;;;;;;5113543;28;20250;-42
2022/09/14 12:43:48;;;;;;;4.80;2.00;;;14.60;99.90;;;;;;5113376;28;20165;-41
2022/09/14 12:46:20;;;;;;;4.60;1.90;;;14.60;99.90;;;;;;5113560;28;20223;-41
2022/09/14 12:51:33;;;;;;;3.23;2.27;;;14.60;99.90;;;;;;5113672;28;20525;-41
2022/09/14 12:54:08;;;;;;;4.07;2.33;;;14.50;99.90;;;;;;5112244;28;20166;-42
2022/09/14 12:56:39;;;;;;;3.80;2.80;;;14.50;99.90;;;;;;5113467;28;20189;-39
2022/09/14 12:59:14;;;;;;;5.73;3.10;;;14.50;99.90;;;;;;5113591;28;20648;-40
2022/09/14 13:01:48;;;;;;;4.83;2.60;;;14.50;99.90;;;;;;5113973;28;20190;-40
2022/09/14 13:04:30;;;;;;;3.97;3.03;;;14.50;99.90;;;;;;5113722;28;20173;-41
2022/09/14 13:06:58;;;;;;;4.17;2.63;;;14.50;99.90;;;;;;5113617;28;20186;-44
2022/09/14 13:09:27;;;;;;;5.77;3.10;;;14.50;99.90;;;;;;5114584;28;20257;-43
2022/09/14 13:11:56;;;;;;;4.77;3.07;;;14.50;99.90;;;;;;5114238;28;20174;-42